Time;durP1;ratioP1;P1;durP2;ratioP2;P2;SDS_P1;SDS_P2;PMS_P1;PMS_P2;Temp;Humidity;BMP_temperature;BMP_pressure;BME280_temperature;BME280_humidity;BME280_pressure;Samples;Min_cycle;Max_cycle;Signal;HPM_P1;HPM_P2
2023/04/18 00:01:38;;;;;;;9.65;5.03;;;11.60;99.90;;;;;;4915782;29;20032;-77
2023/04/18 00:04:04;;;;;;;11.60;5.45;;;11.60;99.90;;;;;;4915227;29;20378;-78
2023/04/18 00:06:34;;;;;;;9.18;5.05;;;11.60;99.90;;;;;;4915175;29;20032;-73
2023/04/18 00:09:01;;;;;;;14.82;5.70;;;11.50;99.90;;;;;;4915427;29;20062;-78
2023/04/18 00:11:27;;;;;;;9.30;4.80;;;11.50;99.90;;;;;;4914868;29;20493;-78
2023/04/18 00:13:53;;;;;;;8.68;4.82;;;11.50;99.90;;;;;;4914392;29;20179;-78
2023/04/18 00:16:19;;;;;;;11.75;6.05;;;11.40;99.90;;;;;;4915125;29;20048;-78
2023/04/18 00:18:47;;;;;;;10.32;5.30;;;11.40;99.90;;;;;;4915146;29;20056;-77
2023/04/18 00:21:12;;;;;;;8.85;5.13;;;11.40;99.90;;;;;;4915219;29;20511;-77
2023/04/18 00:23:38;;;;;;;10.07;4.75;;;11.50;99.90;;;;;;4914570;29;20056;-75
2023/04/18 00:26:04;;;;;;;8.43;4.97;;;11.30;99.90;;;;;;4914411;29;20470;-78
2023/04/18 00:28:30;;;;;;;7.43;4.38;;;11.40;99.90;;;;;;4914254;29;20112;-75
2023/04/18 00:30:56;;;;;;;7.97;4.50;;;11.30;99.90;;;;;;4914866;29;20042;-78
2023/04/18 00:33:22;;;;;;;9.85;4.90;;;11.30;99.90;;;;;;4914823;29;20125;-79
2023/04/18 00:35:51;;;;;;;10.38;5.45;;;11.30;99.90;;;;;;4866496;29;20049;-73
2023/04/18 00:38:16;;;;;;;11.55;5.35;;;11.30;99.90;;;;;;4897255;29;20586;-77
2023/04/18 00:40:42;;;;;;;6.68;4.18;;;11.30;99.90;;;;;;4897713;29;20021;-79
2023/04/18 00:43:08;;;;;;;9.98;5.20;;;11.20;99.90;;;;;;4896960;29;20033;-77
2023/04/18 00:45:34;;;;;;;8.18;5.07;;;11.20;99.90;;;;;;4897962;29;20424;-77
2023/04/18 00:48:00;;;;;;;8.90;5.18;;;11.30;99.90;;;;;;4914732;29;20036;-74
2023/04/18 00:50:26;;;;;;;9.35;4.55;;;11.20;99.90;;;;;;4914781;29;20400;-79
2023/04/18 00:52:53;;;;;;;8.35;4.15;;;11.20;99.90;;;;;;4914435;29;20036;-79
2023/04/18 00:55:20;;;;;;;8.80;4.68;;;11.10;99.90;;;;;;4914636;29;20020;-76
2023/04/18 00:57:46;;;;;;;9.43;4.50;;;11.10;99.90;;;;;;4914354;29;20119;-78
2023/04/18 01:00:12;;;;;;;9.25;4.70;;;11.10;99.90;;;;;;4885295;29;20492;-78
2023/04/18 01:02:39;;;;;;;6.95;4.13;;;11.10;99.90;;;;;;4914685;29;20028;-78
2023/04/18 01:05:06;;;;;;;9.38;4.38;;;11.00;99.90;;;;;;4910666;29;20024;-80
2023/04/18 01:07:36;;;;;;;9.30;4.40;;;11.00;99.90;;;;;;4897663;29;20026;-80
2023/04/18 01:10:03;;;;;;;7.43;4.28;;;11.00;99.90;;;;;;4914417;29;20020;-76
2023/04/18 01:12:29;;;;;;;8.45;4.43;;;11.10;99.90;;;;;;4897059;29;20044;-78
2023/04/18 01:14:55;;;;;;;7.57;4.70;;;11.10;99.90;;;;;;4909881;29;20024;-78
2023/04/18 01:17:22;;;;;;;5.80;3.72;;;11.00;99.90;;;;;;4881377;29;20032;-79
2023/04/18 01:19:50;;;;;;;5.50;3.75;;;11.00;99.90;;;;;;4897281;29;20407;-73
2023/04/18 01:22:18;;;;;;;5.15;3.42;;;10.90;99.90;;;;;;4897556;29;20119;-79
2023/04/18 01:24:43;;;;;;;5.53;3.05;;;11.00;99.90;;;;;;4910822;29;20048;-80
2023/04/18 01:27:12;;;;;;;9.80;4.25;;;10.90;99.90;;;;;;4913556;29;20032;-80
2023/04/18 01:29:39;;;;;;;6.38;3.75;;;10.90;99.90;;;;;;4913335;29;20030;-76
2023/04/18 01:32:05;;;;;;;5.28;3.33;;;10.90;99.90;;;;;;4914171;29;20036;-76
2023/04/18 01:34:31;;;;;;;7.80;4.18;;;11.00;99.90;;;;;;4914732;29;20032;-76
2023/04/18 01:36:58;;;;;;;5.10;3.20;;;11.00;99.90;;;;;;4900682;29;20139;-79
2023/04/18 01:39:24;;;;;;;6.05;3.95;;;10.90;99.90;;;;;;4900779;29;20095;-82
2023/04/18 01:41:51;;;;;;;11.80;3.63;;;10.90;99.90;;;;;;4917679;29;20095;-77
2023/04/18 01:44:17;;;;;;;8.85;3.88;;;10.90;99.90;;;;;;4916599;29;20568;-80
2023/04/18 01:46:44;;;;;;;7.15;3.75;;;10.90;99.90;;;;;;4902508;29;20480;-80
2023/04/18 01:49:10;;;;;;;5.97;3.63;;;10.90;99.90;;;;;;4918860;29;20036;-76
2023/04/18 01:51:37;;;;;;;5.75;3.53;;;10.90;99.90;;;;;;4895610;29;20047;-78
2023/04/18 01:54:04;;;;;;;7.07;3.10;;;10.90;99.90;;;;;;4919169;29;20044;-78
2023/04/18 01:56:30;;;;;;;4.65;3.08;;;10.80;99.90;;;;;;4919405;29;20031;-76
2023/04/18 01:58:57;;;;;;;6.88;3.30;;;10.80;99.90;;;;;;4901805;29;20028;-78
2023/04/18 02:01:23;;;;;;;5.32;3.10;;;10.80;99.90;;;;;;4901960;29;20055;-77
2023/04/18 02:03:49;;;;;;;5.50;3.53;;;10.70;99.90;;;;;;4918923;29;20062;-77
2023/04/18 02:06:15;;;;;;;6.45;3.40;;;10.70;99.90;;;;;;4901457;29;20088;-76
2023/04/18 02:08:41;;;;;;;4.75;3.13;;;10.70;99.90;;;;;;4919248;29;20032;-76
2023/04/18 02:11:07;;;;;;;6.80;3.60;;;10.70;99.90;;;;;;4918986;29;20084;-78
2023/04/18 02:13:32;;;;;;;8.38;3.65;;;10.70;99.90;;;;;;4918727;29;20543;-77
2023/04/18 02:15:58;;;;;;;5.68;3.97;;;10.70;99.90;;;;;;4918988;29;20064;-77
2023/04/18 02:18:25;;;;;;;6.10;3.45;;;10.70;99.90;;;;;;4918710;29;20020;-77
2023/04/18 02:20:51;;;;;;;6.03;3.35;;;10.70;99.90;;;;;;4901627;29;20039;-77
2023/04/18 02:23:17;;;;;;;5.07;3.33;;;10.70;99.90;;;;;;4918565;29;20027;-76
2023/04/18 02:25:43;;;;;;;5.45;3.10;;;10.70;99.90;;;;;;4901767;29;20070;-78
2023/04/18 02:28:09;;;;;;;5.57;3.53;;;10.60;99.90;;;;;;4918247;29;20477;-76
2023/04/18 02:30:35;;;;;;;7.65;3.42;;;10.70;99.90;;;;;;4918629;29;20388;-77
2023/04/18 02:33:01;;;;;;;8.38;4.20;;;10.70;99.90;;;;;;4918231;29;20060;-77
2023/04/18 02:35:28;;;;;;;5.97;3.65;;;10.70;99.90;;;;;;4901560;29;20066;-76
2023/04/18 02:37:53;;;;;;;6.30;3.65;;;10.70;99.90;;;;;;4918025;29;20032;-77
2023/04/18 02:40:19;;;;;;;7.18;4.00;;;10.80;99.90;;;;;;4901684;29;20032;-76
2023/04/18 02:42:45;;;;;;;7.32;3.75;;;10.80;99.90;;;;;;4918148;29;20551;-77
2023/04/18 02:45:14;;;;;;;6.47;4.20;;;10.80;99.90;;;;;;4901348;29;20396;-77
2023/04/18 02:47:40;;;;;;;6.35;4.20;;;10.80;99.90;;;;;;4899974;29;20031;-78
2023/04/18 02:50:07;;;;;;;9.73;4.65;;;10.90;99.90;;;;;;4909245;29;20036;-77
2023/04/18 02:52:34;;;;;;;6.28;3.80;;;10.90;99.90;;;;;;4898227;29;20060;-78
2023/04/18 02:55:00;;;;;;;8.20;4.60;;;10.90;99.90;;;;;;4912850;29;20024;-78
2023/04/18 02:57:31;;;;;;;7.60;4.68;;;11.00;99.90;;;;;;4917030;29;20024;-77
2023/04/18 03:00:16;;;;;;;10.60;5.90;;;11.00;99.90;;;;;;4901066;29;20496;-78
2023/04/18 03:03:09;;;;;;;;;;;11.00;99.90;;;;;;4917186;29;20036;-76
2023/04/18 03:05:46;;;;;;;10.27;5.85;;;10.90;99.90;;;;;;4900709;29;19911;-77
2023/04/18 03:08:12;;;;;;;12.35;5.22;;;11.00;99.90;;;;;;4900726;29;20032;-77
2023/04/18 03:10:38;;;;;;;10.25;5.45;;;10.90;99.90;;;;;;4900926;29;20027;-76
2023/04/18 03:13:05;;;;;;;9.48;4.88;;;10.90;99.90;;;;;;4900757;29;20040;-75
2023/04/18 03:15:32;;;;;;;10.05;5.60;;;10.90;99.90;;;;;;4900481;29;20051;-76
2023/04/18 03:17:58;;;;;;;9.75;5.45;;;10.80;99.90;;;;;;4917895;29;20060;-75
2023/04/18 03:20:26;;;;;;;9.85;5.05;;;10.80;99.90;;;;;;4900307;29;20079;-77
2023/04/18 03:22:52;;;;;;;10.70;4.93;;;10.80;99.90;;;;;;4900509;29;20055;-76
2023/04/18 03:25:22;;;;;;;7.85;5.35;;;10.90;99.90;;;;;;4900181;29;20028;-75
2023/04/18 03:27:51;;;;;;;10.52;5.35;;;10.90;99.90;;;;;;4916345;29;20047;-76
2023/04/18 03:30:19;;;;;;;8.38;4.85;;;10.90;99.90;;;;;;4900241;29;20059;-76
2023/04/18 03:32:54;;;;;;;9.30;4.90;;;10.90;99.90;;;;;;4900345;29;20523;-75
2023/04/18 03:35:21;;;;;;;11.10;5.22;;;10.90;99.90;;;;;;4900333;29;20394;-77
2023/04/18 03:37:47;;;;;;;8.57;5.28;;;11.00;99.90;;;;;;4900475;29;20503;-76
2023/04/18 03:40:21;;;;;;;13.85;7.43;;;10.90;99.90;;;;;;4916114;29;20020;-75
2023/04/18 03:42:49;;;;;;;13.60;7.25;;;11.00;99.90;;;;;;4881979;29;20029;-76
2023/04/18 03:45:15;;;;;;;8.32;4.97;;;10.90;99.90;;;;;;4899447;29;20079;-75
2023/04/18 03:47:44;;;;;;;10.00;4.97;;;10.90;99.90;;;;;;4900016;29;20498;-77
2023/04/18 03:50:10;;;;;;;8.80;4.95;;;11.00;99.90;;;;;;4893200;29;20107;-75
2023/04/18 03:52:37;;;;;;;8.15;4.82;;;11.00;99.90;;;;;;4900052;29;20043;-74
2023/04/18 03:55:04;;;;;;;10.32;5.13;;;11.00;99.90;;;;;;4903701;29;20532;-75
2023/04/18 03:57:32;;;;;;;12.70;7.03;;;11.00;99.90;;;;;;4915688;29;20031;-74
2023/04/18 03:59:59;;;;;;;13.13;6.03;;;10.90;99.90;;;;;;4899433;29;20032;-76
2023/04/18 04:02:29;;;;;;;11.02;6.05;;;10.80;99.90;;;;;;4893622;29;20037;-76
2023/04/18 04:04:55;;;;;;;10.25;5.53;;;10.80;99.90;;;;;;4893442;29;20032;-76
2023/04/18 04:07:21;;;;;;;10.10;5.97;;;10.80;99.90;;;;;;4887948;29;20031;-76
2023/04/18 04:09:47;;;;;;;13.23;7.65;;;11.00;99.90;;;;;;4902863;29;20036;-77
2023/04/18 04:12:13;;;;;;;9.13;5.78;;;11.10;99.90;;;;;;4899734;29;20028;-77
2023/04/18 04:14:39;;;;;;;10.80;6.03;;;11.00;99.90;;;;;;4899342;29;20067;-76
2023/04/18 04:17:05;;;;;;;12.02;7.07;;;11.10;99.90;;;;;;4916317;29;20485;-78
2023/04/18 04:19:31;;;;;;;12.77;8.73;;;11.00;99.90;;;;;;4899370;29;20497;-76
2023/04/18 04:22:07;;;;;;;11.02;6.90;;;11.00;99.90;;;;;;4898951;29;20031;-78
2023/04/18 04:24:37;;;;;;;13.95;8.75;;;11.10;99.90;;;;;;4899663;29;20040;-77
2023/04/18 04:27:04;;;;;;;14.55;7.95;;;11.10;99.90;;;;;;4898945;29;20205;-76
2023/04/18 04:29:34;;;;;;;14.45;7.25;;;11.10;99.90;;;;;;4899073;29;20063;-77
2023/04/18 04:32:00;;;;;;;8.68;4.95;;;11.00;99.90;;;;;;4899612;29;20055;-80
2023/04/18 04:34:33;;;;;;;9.05;5.28;;;11.00;99.90;;;;;;4915745;29;20129;-78
2023/04/18 04:37:02;;;;;;;8.45;4.90;;;10.90;99.90;;;;;;4896398;29;20055;-78
2023/04/18 04:39:29;;;;;;;11.82;5.93;;;10.90;99.90;;;;;;4898193;29;20087;-78
2023/04/18 04:42:14;;;;;;;10.68;6.32;;;11.00;99.90;;;;;;4916248;29;20055;-77
2023/04/18 04:44:54;;;;;;;9.35;5.40;;;11.00;99.90;;;;;;4907071;29;20533;-77
2023/04/18 04:47:21;;;;;;;7.05;4.57;;;11.10;99.90;;;;;;4899183;29;20441;-77
2023/04/18 04:49:47;;;;;;;12.73;6.38;;;10.90;99.90;;;;;;4898744;29;20502;-77
2023/04/18 04:52:13;;;;;;;9.95;5.50;;;10.90;99.90;;;;;;4916045;29;20040;-79
2023/04/18 04:54:39;;;;;;;8.90;5.03;;;10.90;99.90;;;;;;4898835;29;20433;-72
2023/04/18 04:57:08;;;;;;;8.73;5.18;;;10.90;99.90;;;;;;4899402;29;20032;-78
2023/04/18 04:59:34;;;;;;;8.82;5.72;;;10.90;99.90;;;;;;4898850;29;20039;-77
2023/04/18 05:02:00;;;;;;;8.30;5.05;;;10.90;99.90;;;;;;4899089;29;20035;-77
2023/04/18 05:04:26;;;;;;;8.95;4.80;;;11.00;99.90;;;;;;4898856;29;20036;-78
2023/04/18 05:06:52;;;;;;;8.90;4.35;;;11.20;99.90;;;;;;4916000;29;20032;-78
2023/04/18 05:09:18;;;;;;;8.20;4.72;;;11.20;99.90;;;;;;4914972;29;20032;-78
2023/04/18 05:11:44;;;;;;;10.98;4.00;;;11.30;99.90;;;;;;4916180;29;20028;-77
2023/04/18 05:14:11;;;;;;;7.80;4.47;;;11.40;99.90;;;;;;4915954;29;20503;-78
2023/04/18 05:16:37;;;;;;;6.22;4.03;;;11.60;99.90;;;;;;4916108;29;20020;-77
2023/04/18 05:19:02;;;;;;;7.30;3.95;;;11.70;99.90;;;;;;4914583;29;20131;-77
2023/04/18 05:21:28;;;;;;;5.70;3.60;;;11.80;99.90;;;;;;4915491;29;20457;-78
2023/04/18 05:23:57;;;;;;;7.10;3.40;;;11.60;99.90;;;;;;4913478;29;20032;-77
2023/04/18 05:26:23;;;;;;;6.30;3.90;;;11.70;99.90;;;;;;4906062;29;20028;-78
2023/04/18 05:28:49;;;;;;;7.82;3.78;;;11.80;99.90;;;;;;4915905;29;20039;-78
2023/04/18 05:31:15;;;;;;;6.55;3.47;;;11.80;99.90;;;;;;4915326;29;20389;-78
2023/04/18 05:33:41;;;;;;;13.30;8.30;;;11.90;99.90;;;;;;4904426;29;20500;-77
2023/04/18 05:36:07;;;;;;;5.65;3.20;;;11.90;99.90;;;;;;4913910;29;20028;-77
2023/04/18 05:38:33;;;;;;;13.10;8.85;;;11.80;99.90;;;;;;4914264;29;20028;-78
2023/04/18 05:40:59;;;;;;;5.65;3.40;;;12.10;99.90;;;;;;4905325;29;20047;-78
2023/04/18 05:43:25;;;;;;;9.60;6.20;;;12.10;99.90;;;;;;4910273;29;20196;-78
2023/04/18 05:45:51;;;;;;;8.15;5.43;;;12.10;99.90;;;;;;4913941;29;20031;-77
2023/04/18 05:48:17;;;;;;;11.57;8.13;;;12.40;99.90;;;;;;4909892;29;20057;-78
2023/04/18 05:50:43;;;;;;;5.20;3.22;;;12.50;99.90;;;;;;4906370;29;20033;-78
2023/04/18 05:53:09;;;;;;;5.88;3.28;;;12.40;99.90;;;;;;4911167;29;20119;-77
2023/04/18 05:55:35;;;;;;;4.03;2.53;;;12.10;99.90;;;;;;4913791;29;20421;-78
2023/04/18 05:58:01;;;;;;;4.80;2.42;;;12.30;99.90;;;;;;4909446;29;20058;-77
2023/04/18 06:00:27;;;;;;;6.22;3.20;;;12.30;99.90;;;;;;4915450;29;20040;-78
2023/04/18 06:02:53;;;;;;;6.80;3.25;;;12.30;99.90;;;;;;4904913;29;20520;-78
2023/04/18 06:05:18;;;;;;;7.18;4.15;;;12.40;99.90;;;;;;4915446;29;20020;-75
2023/04/18 06:07:44;;;;;;;15.45;9.95;;;12.70;99.90;;;;;;4913771;29;20417;-78
2023/04/18 06:10:12;;;;;;;8.02;3.90;;;12.70;99.90;;;;;;4915688;29;20020;-78
2023/04/18 06:12:38;;;;;;;8.05;5.10;;;13.00;99.90;;;;;;4913761;29;20515;-78
2023/04/18 06:15:05;;;;;;;4.03;2.50;;;12.90;99.90;;;;;;4908644;29;20040;-77
2023/04/18 06:17:33;;;;;;;3.63;2.58;;;12.90;99.90;;;;;;4913988;29;20052;-78
2023/04/18 06:19:59;;;;;;;2.90;2.25;;;12.70;99.90;;;;;;4911200;29;20538;-77
2023/04/18 06:22:25;;;;;;;6.38;2.88;;;13.00;99.90;;;;;;4917160;29;20036;-78
2023/04/18 06:24:51;;;;;;;5.78;3.92;;;13.10;99.90;;;;;;4918186;29;20028;-78
2023/04/18 06:27:17;;;;;;;7.25;3.78;;;13.20;99.90;;;;;;4918910;29;20539;-78
2023/04/18 06:29:43;;;;;;;7.85;4.63;;;13.30;99.90;;;;;;4914476;29;20103;-78
2023/04/18 06:32:09;;;;;;;5.18;2.53;;;13.40;99.90;;;;;;4918648;29;20484;-76
2023/04/18 06:34:37;;;;;;;5.18;2.95;;;13.30;99.90;;;;;;4917406;29;20043;-78
2023/04/18 06:37:03;;;;;;;6.00;3.35;;;13.40;99.90;;;;;;4915019;29;20368;-77
2023/04/18 06:39:29;;;;;;;4.43;2.55;;;13.50;99.90;;;;;;4916914;29;20032;-78
2023/04/18 06:41:57;;;;;;;2.50;1.80;;;13.30;99.90;;;;;;4918259;29;20035;-78
2023/04/18 06:44:27;;;;;;;4.53;2.22;;;12.90;99.90;;;;;;4899620;29;20028;-76
2023/04/18 06:46:53;;;;;;;2.10;1.50;;;13.00;99.90;;;;;;4911945;29;20032;-78
2023/04/18 06:49:19;;;;;;;3.58;2.05;;;13.20;99.90;;;;;;4918370;29;20024;-78
2023/04/18 06:51:45;;;;;;;5.60;2.83;;;13.30;99.90;;;;;;4918094;29;20032;-78
2023/04/18 06:54:11;;;;;;;8.57;3.50;;;13.20;99.90;;;;;;4917999;29;20058;-77
2023/04/18 06:56:36;;;;;;;3.28;2.22;;;13.10;99.90;;;;;;4917773;29;20016;-78
2023/04/18 06:59:02;;;;;;;7.07;2.42;;;13.40;99.90;;;;;;4916332;29;20357;-78
2023/04/18 07:01:33;;;;;;;3.15;1.92;;;13.50;99.90;;;;;;4917252;29;20029;-77
2023/04/18 07:04:00;;;;;;;3.50;1.88;;;13.60;99.90;;;;;;4917667;29;20032;-78
2023/04/18 07:06:28;;;;;;;4.03;2.00;;;13.50;99.90;;;;;;4918366;29;20387;-79
2023/04/18 07:08:58;;;;;;;3.10;1.45;;;13.80;99.90;;;;;;4900532;29;20099;-77
2023/04/18 07:11:24;;;;;;;2.85;1.83;;;13.70;99.90;;;;;;4911949;29;20028;-77
2023/04/18 07:13:50;;;;;;;2.47;1.45;;;13.60;99.90;;;;;;4916062;29;20373;-78
2023/04/18 07:16:16;;;;;;;4.68;1.38;;;13.80;99.90;;;;;;4908929;29;20040;-78
2023/04/18 07:18:42;;;;;;;5.78;2.40;;;13.80;99.90;;;;;;4906619;29;20040;-78
2023/04/18 07:21:07;;;;;;;4.07;1.52;;;13.90;99.90;;;;;;4907219;29;20033;-76
2023/04/18 07:23:34;;;;;;;2.75;1.40;;;13.70;99.90;;;;;;4916503;29;20024;-78
2023/04/18 07:26:01;;;;;;;6.35;2.35;;;13.60;99.90;;;;;;4917507;29;20028;-78
2023/04/18 07:28:28;;;;;;;3.30;2.30;;;13.90;99.90;;;;;;4916737;29;20153;-77
2023/04/18 07:30:55;;;;;;;2.40;1.33;;;14.60;99.90;;;;;;4909064;29;20891;-77
2023/04/18 07:33:22;;;;;;;2.08;1.38;;;15.10;99.90;;;;;;4917191;29;20416;-77
2023/04/18 07:35:48;;;;;;;2.53;1.98;;;15.10;99.90;;;;;;4917019;29;20490;-77
2023/04/18 07:38:15;;;;;;;8.75;4.22;;;14.70;99.90;;;;;;4917014;29;20032;-76
2023/04/18 07:40:41;;;;;;;2.33;1.25;;;13.90;99.90;;;;;;4915423;29;20032;-74
2023/04/18 07:43:08;;;;;;;2.28;1.60;;;14.30;99.90;;;;;;4915853;29;20028;-77
2023/04/18 07:45:37;;;;;;;2.05;1.58;;;13.80;99.90;;;;;;4912173;29;20038;-77
2023/04/18 07:48:04;;;;;;;2.85;2.03;;;13.90;99.90;;;;;;4916978;29;20040;-78
2023/04/18 07:50:29;;;;;;;2.03;1.33;;;13.90;99.90;;;;;;4917241;29;20511;-77
2023/04/18 07:52:55;;;;;;;3.13;1.60;;;14.00;99.90;;;;;;4909042;29;20083;-78
2023/04/18 07:55:21;;;;;;;2.42;1.58;;;14.20;99.90;;;;;;4917203;29;20143;-78
2023/04/18 07:57:49;;;;;;;2.45;1.33;;;13.80;99.90;;;;;;4905510;29;20043;-77
2023/04/18 08:00:17;;;;;;;1.88;1.60;;;14.10;99.90;;;;;;4917211;29;20552;-75
2023/04/18 08:02:44;;;;;;;2.92;1.13;;;14.20;99.90;;;;;;4915390;29;20075;-78
2023/04/18 08:05:09;;;;;;;2.80;1.10;;;14.20;99.90;;;;;;4912666;29;20119;-77
2023/04/18 08:07:35;;;;;;;3.15;1.58;;;13.90;99.90;;;;;;4916727;29;20107;-78
2023/04/18 08:10:02;;;;;;;2.03;1.30;;;14.00;99.90;;;;;;4899313;29;20040;-78
2023/04/18 08:12:27;;;;;;;2.67;1.20;;;14.30;99.90;;;;;;4916884;29;20107;-78
2023/04/18 08:14:53;;;;;;;3.50;1.17;;;14.60;99.90;;;;;;4913572;29;20481;-77
2023/04/18 08:17:19;;;;;;;1.45;0.93;;;14.60;99.90;;;;;;4914422;29;20052;-76
2023/04/18 08:19:45;;;;;;;3.70;1.70;;;14.70;99.90;;;;;;4909078;29;20056;-72
2023/04/18 08:22:11;;;;;;;2.33;1.38;;;14.40;99.90;;;;;;4916056;29;20055;-77
2023/04/18 08:24:37;;;;;;;1.40;1.15;;;14.90;99.90;;;;;;4915568;29;20035;-78
2023/04/18 08:27:03;;;;;;;2.95;1.73;;;15.20;99.90;;;;;;4916329;29;20476;-77
2023/04/18 08:29:30;;;;;;;2.20;1.15;;;15.50;99.90;;;;;;4915838;29;20111;-78
2023/04/18 08:31:55;;;;;;;2.63;1.13;;;14.90;99.90;;;;;;4914651;29;20103;-77
2023/04/18 08:34:22;;;;;;;1.40;1.00;;;15.10;99.90;;;;;;4914908;29;20036;-78
2023/04/18 08:36:50;;;;;;;2.63;1.02;;;15.10;99.90;;;;;;4915004;29;20083;-78
2023/04/18 08:39:16;;;;;;;2.15;1.58;;;15.20;99.90;;;;;;4914543;29;20472;-73
2023/04/18 08:41:45;;;;;;;1.80;1.33;;;15.60;99.90;;;;;;4914469;29;20032;-78
2023/04/18 08:44:11;;;;;;;3.65;1.10;;;15.60;99.90;;;;;;4911108;29;20488;-78
2023/04/18 08:46:37;;;;;;;1.50;1.00;;;15.40;99.90;;;;;;4914217;29;20039;-79
2023/04/18 08:49:04;;;;;;;1.05;0.93;;;15.70;99.90;;;;;;4915020;29;20480;-78
2023/04/18 08:51:31;;;;;;;1.95;1.20;;;16.10;99.90;;;;;;4912172;29;20024;-78
2023/04/18 08:54:01;;;;;;;1.85;1.13;;;16.10;99.90;;;;;;4914779;29;20039;-78
2023/04/18 08:56:27;;;;;;;2.53;1.25;;;15.80;99.90;;;;;;4905320;29;20376;-78
2023/04/18 08:58:55;;;;;;;2.17;1.20;;;16.30;99.90;;;;;;4915183;29;20175;-76
2023/04/18 09:01:21;;;;;;;2.05;1.27;;;16.70;99.90;;;;;;4915469;29;20020;-77
2023/04/18 09:03:47;;;;;;;2.03;1.00;;;16.80;99.90;;;;;;4914746;29;20036;-77
2023/04/18 09:06:17;;;;;;;1.80;1.20;;;16.60;99.90;;;;;;4914784;29;20079;-78
2023/04/18 09:08:57;;;;;;;2.35;1.55;;;16.60;99.90;;;;;;4908628;29;20032;-77
2023/04/18 09:11:25;;;;;;;2.83;1.50;;;16.50;99.90;;;;;;4915782;29;20067;-77
2023/04/18 09:13:52;;;;;;;1.23;1.10;;;16.00;99.90;;;;;;4916290;29;20044;-77
2023/04/18 09:16:19;;;;;;;1.65;1.27;;;15.80;99.90;;;;;;4915641;29;20059;-77
2023/04/18 09:19:12;;;;;;;3.50;2.10;;;15.70;99.90;;;;;;4916123;29;20169;-75
2023/04/18 09:21:41;;;;;;;1.83;1.38;;;15.80;99.90;;;;;;4900648;29;20119;-76
2023/04/18 09:24:28;;;;;;;1.83;1.08;;;15.30;99.90;;;;;;4916374;29;20432;-76
2023/04/18 09:26:58;;;;;;;2.92;1.45;;;15.40;99.90;;;;;;4916321;29;20043;-75
2023/04/18 09:29:50;;;;;;;2.38;1.17;;;15.80;99.90;;;;;;4916261;29;20039;-74
2023/04/18 09:32:25;;;;;;;2.35;1.63;;;16.30;99.90;;;;;;4821160;29;20535;-73
2023/04/18 09:35:00;;;;;;;1.58;1.05;;;16.60;99.90;;;;;;4821365;29;20061;-76
2023/04/18 09:37:27;;;;;;;2.45;1.20;;;16.70;99.90;;;;;;4805780;29;20403;-77
2023/04/18 09:39:53;;;;;;;1.95;1.20;;;17.00;99.90;;;;;;4821043;29;20035;-77
2023/04/18 09:42:21;;;;;;;1.98;1.25;;;16.90;99.90;;;;;;4820793;29;20062;-73
2023/04/18 09:45:04;;;;;;;2.50;0.98;;;16.90;99.90;;;;;;4821211;29;20034;-75
2023/04/18 09:47:36;;;;;;;1.73;0.77;;;17.10;99.90;;;;;;4820796;29;20037;-77
2023/04/18 09:50:04;;;;;;;1.85;0.98;;;17.50;99.90;;;;;;4821207;29;20057;-77
2023/04/18 09:52:44;;;;;;;1.65;1.20;;;17.70;99.90;;;;;;4820763;29;20043;-77
2023/04/18 09:55:12;;;;;;;2.85;1.40;;;17.60;99.90;;;;;;4820636;29;20054;-77
2023/04/18 09:57:41;;;;;;;4.05;2.00;;;17.80;99.90;;;;;;4822358;29;20045;-77
2023/04/18 10:00:22;;;;;;;1.77;0.90;;;17.60;99.90;;;;;;4824522;29;20039;-78
2023/04/18 10:02:56;;;;;;;2.30;1.00;;;17.00;99.90;;;;;;4824602;29;20489;-73
2023/04/18 10:05:29;;;;;;;1.35;0.88;;;16.70;99.90;;;;;;4823923;29;20034;-76
2023/04/18 10:07:56;;;;;;;1.10;0.95;;;16.90;99.90;;;;;;4809023;29;20034;-76
2023/04/18 10:10:22;;;;;;;1.05;0.95;;;17.10;99.90;;;;;;4917068;29;20111;-73
2023/04/18 10:12:52;;;;;;;1.17;0.77;;;17.20;99.90;;;;;;4918863;29;20080;-70
2023/04/18 10:15:21;;;;;;;1.13;1.00;;;16.70;99.90;;;;;;4918486;29;20036;-77
2023/04/18 10:17:56;;;;;;;1.08;1.02;;;16.80;99.90;;;;;;4918974;29;20424;-77
2023/04/18 10:20:25;;;;;;;1.98;1.58;;;17.30;99.90;;;;;;4918832;29;20045;-77
2023/04/18 10:22:52;;;;;;;1.65;1.00;;;17.60;99.90;;;;;;4918666;29;20024;-76
2023/04/18 10:25:33;;;;;;;2.80;1.15;;;17.80;99.90;;;;;;4918808;29;20024;-77
2023/04/18 10:28:00;;;;;;;6.03;1.58;;;17.70;99.90;;;;;;4918775;29;20114;-76
2023/04/18 10:30:41;;;;;;;1.90;1.50;;;17.50;99.90;;;;;;4918669;29;20075;-78
2023/04/18 10:33:25;;;;;;;3.55;2.03;;;17.60;99.90;;;;;;4918503;29;20031;-77
2023/04/18 10:36:23;;;;;;;1.55;1.00;;;17.30;99.90;;;;;;4918926;29;20028;-77
2023/04/18 10:38:52;;;;;;;1.52;1.20;;;17.00;99.90;;;;;;4914624;29;20044;-72
2023/04/18 10:41:21;;;;;;;6.15;1.40;;;17.20;99.90;;;;;;4918590;29;20387;-76
2023/04/18 10:44:08;;;;;;;1.45;1.05;;;17.30;99.90;;;;;;4918990;29;20036;-75
2023/04/18 10:46:41;;;;;;;3.05;1.90;;;16.90;99.90;;;;;;4907292;29;20043;-75
2023/04/18 10:49:19;;;;;;;1.63;1.30;;;17.20;99.90;;;;;;4918203;29;20040;-76
2023/04/18 10:51:46;;;;;;;2.67;1.50;;;17.20;99.90;;;;;;4918697;29;20032;-75
2023/04/18 10:54:18;;;;;;;2.85;1.73;;;17.30;99.90;;;;;;4917756;29;20507;-76
2023/04/18 10:56:58;;;;;;;1.95;1.35;;;17.10;99.90;;;;;;4918299;29;20024;-73
2023/04/18 10:59:25;;;;;;;1.77;1.40;;;17.20;99.90;;;;;;4918384;29;20032;-75
2023/04/18 11:01:56;;;;;;;2.63;1.40;;;17.40;99.90;;;;;;4918336;29;20047;-76
2023/04/18 11:04:24;;;;;;;8.60;4.13;;;17.50;99.90;;;;;;4905714;29;20028;-77
2023/04/18 11:06:56;;;;;;;2.75;1.52;;;17.50;99.90;;;;;;4917849;29;20036;-76
2023/04/18 11:09:22;;;;;;;2.00;1.52;;;17.20;99.90;;;;;;4917483;29;20139;-75
2023/04/18 11:12:06;;;;;;;4.28;3.28;;;17.30;99.90;;;;;;4918076;29;20123;-77
2023/04/18 11:15:00;;;;;;;3.08;2.20;;;17.20;99.90;;;;;;4918204;29;20040;-76
2023/04/18 11:17:31;;;;;;;2.75;1.92;;;17.30;99.90;;;;;;4886219;29;20036;-78
2023/04/18 11:20:07;;;;;;;2.53;1.50;;;17.50;99.90;;;;;;4917930;29;20063;-77
2023/04/18 11:22:52;;;;;;;2.08;1.10;;;17.20;99.90;;;;;;4917892;29;20062;-77
2023/04/18 11:25:22;;;;;;;2.50;1.23;;;17.30;99.90;;;;;;4917243;29;20024;-77
2023/04/18 11:27:54;;;;;;;4.28;1.60;;;17.10;99.90;;;;;;4917947;29;20111;-77
2023/04/18 11:30:20;;;;;;;3.10;2.10;;;17.20;99.90;;;;;;4917693;29;20032;-77
2023/04/18 11:32:46;;;;;;;8.38;4.28;;;17.00;99.90;;;;;;4917361;29;20040;-78
2023/04/18 11:35:13;;;;;;;4.43;1.70;;;16.90;99.90;;;;;;4916904;29;20032;-73
2023/04/18 11:37:40;;;;;;;5.43;3.17;;;16.50;99.90;;;;;;4917407;29;20084;-73
2023/04/18 11:40:10;;;;;;;3.95;1.85;;;16.80;99.90;;;;;;4917014;29;20111;-76
2023/04/18 11:42:38;;;;;;;5.47;3.20;;;16.90;99.90;;;;;;4917121;29;20056;-76
2023/04/18 11:45:12;;;;;;;16.83;8.00;;;17.00;99.90;;;;;;4917155;29;20500;-77
2023/04/18 11:47:40;;;;;;;3.00;2.17;;;17.10;99.90;;;;;;4917172;29;20028;-78
2023/04/18 11:50:08;;;;;;;3.47;1.70;;;17.00;99.90;;;;;;4917663;29;20043;-76
2023/04/18 11:52:35;;;;;;;3.33;1.67;;;16.50;99.90;;;;;;4916919;29;20047;-76
2023/04/18 11:55:22;;;;;;;3.00;1.75;;;16.50;99.90;;;;;;4917320;29;20024;-77
2023/04/18 11:57:50;;;;;;;2.13;1.63;;;16.50;99.90;;;;;;4917062;29;20035;-77
2023/04/18 12:00:19;;;;;;;10.65;2.75;;;16.80;99.90;;;;;;4917299;29;20087;-75
2023/04/18 12:02:46;;;;;;;4.93;3.03;;;16.90;99.90;;;;;;4904754;29;20123;-72
2023/04/18 12:05:33;;;;;;;3.25;2.13;;;16.80;99.90;;;;;;4917073;29;20060;-77
2023/04/18 12:08:12;;;;;;;4.22;2.13;;;17.00;99.90;;;;;;4916572;29;20036;-79
2023/04/18 12:10:45;;;;;;;3.45;1.98;;;16.50;99.90;;;;;;4916854;29;20038;-77
2023/04/18 12:13:11;;;;;;;2.33;1.80;;;17.00;99.90;;;;;;4916617;29;20035;-76
2023/04/18 12:15:41;;;;;;;5.78;2.50;;;17.00;99.90;;;;;;4916515;29;20499;-71
2023/04/18 12:18:10;;;;;;;5.22;2.30;;;17.00;99.90;;;;;;4916622;29;20484;-71
2023/04/18 12:20:45;;;;;;;4.38;1.80;;;16.90;99.90;;;;;;4903647;29;20089;-77
2023/04/18 12:23:34;;;;;;;4.03;2.20;;;17.00;99.90;;;;;;4916594;29;20404;-78
2023/04/18 12:26:02;;;;;;;2.35;1.50;;;16.70;99.90;;;;;;4916369;29;20500;-72
2023/04/18 12:28:29;;;;;;;2.55;1.60;;;17.10;99.90;;;;;;4916171;29;20027;-77
2023/04/18 12:30:55;;;;;;;3.65;1.75;;;16.90;99.90;;;;;;4916637;29;20073;-74
2023/04/18 12:33:22;;;;;;;3.13;1.83;;;17.10;99.90;;;;;;4916019;29;20064;-73
2023/04/18 12:35:48;;;;;;;2.95;1.88;;;17.40;99.90;;;;;;4917170;29;20040;-77
2023/04/18 12:38:14;;;;;;;6.38;2.13;;;17.00;99.90;;;;;;4916374;29;20039;-76
2023/04/18 12:40:40;;;;;;;6.07;3.08;;;17.00;99.90;;;;;;4916554;29;20377;-76
2023/04/18 12:43:07;;;;;;;6.30;3.40;;;16.60;99.90;;;;;;4916210;29;20027;-76
2023/04/18 12:45:32;;;;;;;5.80;3.60;;;16.70;99.90;;;;;;4916466;29;20482;-72
2023/04/18 12:47:58;;;;;;;10.45;5.15;;;16.70;99.90;;;;;;4916118;29;20079;-77
2023/04/18 12:50:25;;;;;;;17.58;10.13;;;16.70;99.90;;;;;;4916087;29;20036;-74
2023/04/18 12:52:53;;;;;;;6.63;3.88;;;16.80;99.90;;;;;;4916233;29;20036;-77